Time;durP1;ratioP1;P1;durP2;ratioP2;P2;SDS_P1;SDS_P2;PMS_P1;PMS_P2;Temp;Humidity;BMP_temperature;BMP_pressure;BME280_temperature;BME280_humidity;BME280_pressure;Samples;Min_cycle;Max_cycle;Signal;HPM_P1;HPM_P2
2021/05/16 00:02:23;;;;;;;42.58;22.25;;;9.60;99.90;;;;;;4953709;29;20096;-78
2021/05/16 00:04:49;;;;;;;39.22;21.27;;;9.60;99.90;;;;;;4954226;29;20030;-78
2021/05/16 00:07:15;;;;;;;47.05;23.90;;;9.60;99.90;;;;;;4955044;28;20020;-78
2021/05/16 00:09:40;;;;;;;47.83;24.50;;;9.70;99.90;;;;;;4969240;28;20476;-78
2021/05/16 00:12:16;;;;;;;42.72;23.73;;;9.70;99.90;;;;;;4954818;28;20032;-78
2021/05/16 00:14:44;;;;;;;47.35;24.98;;;9.70;99.90;;;;;;4954148;28;20066;-78
2021/05/16 00:17:09;;;;;;;44.10;23.55;;;9.70;99.90;;;;;;4954850;29;20484;-78
2021/05/16 00:19:35;;;;;;;44.42;24.33;;;9.70;99.90;;;;;;4953830;29;20035;-77
2021/05/16 00:22:01;;;;;;;47.08;26.33;;;9.70;99.90;;;;;;4954929;29;20027;-78
2021/05/16 00:24:27;;;;;;;48.03;24.17;;;9.50;99.90;;;;;;4953789;28;20496;-78
2021/05/16 00:26:53;;;;;;;42.30;23.17;;;9.70;99.90;;;;;;4954981;28;20110;-78
2021/05/16 00:29:19;;;;;;;51.78;26.02;;;9.60;99.90;;;;;;4954362;28;20031;-78
2021/05/16 00:31:44;;;;;;;46.30;25.35;;;9.60;99.90;;;;;;4953307;29;20181;-78
2021/05/16 00:34:10;;;;;;;41.58;21.60;;;9.60;99.90;;;;;;4953988;29;20121;-77
2021/05/16 00:36:36;;;;;;;49.03;25.08;;;9.60;99.90;;;;;;4953655;28;20038;-78
2021/05/16 00:39:03;;;;;;;56.00;25.60;;;9.60;99.90;;;;;;4953619;29;20023;-78
2021/05/16 00:41:29;;;;;;;45.05;23.92;;;9.60;99.90;;;;;;4954380;28;20067;-78
2021/05/16 00:43:55;;;;;;;44.13;22.88;;;9.50;99.90;;;;;;4952449;29;20555;-78
2021/05/16 00:46:20;;;;;;;42.63;22.70;;;9.50;99.90;;;;;;4954147;28;20388;-78
2021/05/16 00:48:46;;;;;;;45.80;23.13;;;9.30;99.90;;;;;;4953376;29;20023;-78
2021/05/16 00:51:11;;;;;;;39.75;22.67;;;9.20;99.90;;;;;;4953040;29;20388;-78
2021/05/16 00:53:38;;;;;;;44.28;23.77;;;9.10;99.90;;;;;;4954110;29;20023;-78
2021/05/16 00:56:05;;;;;;;49.22;25.17;;;8.90;99.90;;;;;;4949119;29;20535;-78
2021/05/16 00:58:32;;;;;;;49.85;24.42;;;8.80;99.90;;;;;;4932780;29;20027;-78
2021/05/16 01:00:58;;;;;;;50.10;25.33;;;8.70;99.90;;;;;;4950283;29;20037;-78
2021/05/16 01:03:26;;;;;;;53.72;27.33;;;8.60;99.90;;;;;;4954066;28;20051;-78
2021/05/16 01:05:52;;;;;;;55.08;26.48;;;8.50;99.90;;;;;;4967671;28;20061;-78
2021/05/16 01:08:20;;;;;;;46.42;26.17;;;8.40;99.90;;;;;;4954048;28;20055;-78
2021/05/16 01:10:47;;;;;;;58.55;26.15;;;8.30;99.90;;;;;;4953863;29;20485;-78
2021/05/16 01:13:12;;;;;;;55.47;28.15;;;8.20;99.90;;;;;;4953681;28;20081;-78
2021/05/16 01:15:40;;;;;;;52.88;26.25;;;8.10;99.90;;;;;;4953049;29;20027;-78
2021/05/16 01:18:08;;;;;;;50.45;24.92;;;8.00;99.90;;;;;;4953808;28;20042;-78
2021/05/16 01:20:38;;;;;;;53.63;25.52;;;7.90;99.90;;;;;;4952869;28;20035;-78
2021/05/16 01:23:06;;;;;;;53.78;26.35;;;7.70;99.90;;;;;;4953760;28;20027;-78
2021/05/16 01:25:35;;;;;;;53.83;28.08;;;7.50;99.90;;;;;;4948345;29;20024;-78
2021/05/16 01:28:01;;;;;;;57.88;27.80;;;7.50;99.90;;;;;;4934553;29;20520;-78
2021/05/16 01:30:27;;;;;;;59.60;30.15;;;7.40;99.90;;;;;;4945893;29;20035;-78
2021/05/16 01:32:55;;;;;;;53.78;28.02;;;7.40;99.90;;;;;;4953658;29;20042;-78
2021/05/16 01:35:22;;;;;;;63.03;30.17;;;7.30;99.90;;;;;;4948542;29;20527;-78
2021/05/16 01:37:57;;;;;;;68.35;32.10;;;7.20;99.90;;;;;;4934461;29;20489;-78
2021/05/16 01:40:26;;;;;;;70.80;32.22;;;7.30;99.90;;;;;;4934538;29;20176;-77
2021/05/16 01:42:54;;;;;;;58.55;28.25;;;7.10;99.90;;;;;;4934137;29;20032;-78
2021/05/16 01:45:24;;;;;;;58.70;29.25;;;7.10;99.90;;;;;;4944146;29;20103;-77
2021/05/16 01:48:01;;;;;;;59.85;30.73;;;7.00;99.90;;;;;;4953630;28;20047;-78
2021/05/16 01:50:30;;;;;;;54.67;28.70;;;6.90;99.90;;;;;;4952438;29;20023;-77
2021/05/16 01:52:56;;;;;;;59.00;30.35;;;6.80;99.90;;;;;;4952286;29;20122;-77
2021/05/16 01:55:24;;;;;;;60.53;31.15;;;6.80;99.90;;;;;;4967513;28;20114;-78
2021/05/16 01:57:51;;;;;;;55.63;29.90;;;6.70;99.90;;;;;;4952125;29;20031;-78
2021/05/16 02:00:28;;;;;;;55.80;28.20;;;6.70;99.90;;;;;;4952008;29;20114;-78
2021/05/16 02:02:55;;;;;;;52.78;28.30;;;6.60;99.90;;;;;;4952553;29;20058;-78
2021/05/16 02:05:20;;;;;;;54.70;27.80;;;6.50;99.90;;;;;;4947937;29;20035;-78
2021/05/16 02:07:50;;;;;;;52.63;26.73;;;6.50;99.90;;;;;;4933043;29;20031;-78
2021/05/16 02:10:17;;;;;;;55.15;28.35;;;6.50;99.90;;;;;;4934323;29;20031;-78
2021/05/16 02:12:45;;;;;;;66.80;32.42;;;6.40;99.90;;;;;;4934151;29;20038;-78
2021/05/16 02:15:12;;;;;;;68.43;33.17;;;6.40;99.90;;;;;;4941615;29;20407;-78
2021/05/16 02:17:40;;;;;;;68.93;32.45;;;6.40;99.90;;;;;;4953235;29;20086;-78
2021/05/16 02:20:11;;;;;;;77.85;37.95;;;6.40;99.90;;;;;;4951934;29;20035;-78
2021/05/16 02:22:36;;;;;;;80.95;36.45;;;6.40;99.90;;;;;;4952116;29;20082;-78
2021/05/16 02:25:05;;;;;;;75.60;35.10;;;6.40;99.90;;;;;;4948010;29;20473;-78
2021/05/16 02:27:33;;;;;;;69.65;34.60;;;6.40;99.90;;;;;;4948964;29;20024;-78
2021/05/16 02:30:01;;;;;;;77.85;35.63;;;6.40;99.90;;;;;;4941614;29;20054;-78
2021/05/16 02:32:27;;;;;;;74.88;34.97;;;6.40;99.90;;;;;;4953498;28;20042;-78
2021/05/16 02:34:52;;;;;;;79.45;36.63;;;6.30;99.90;;;;;;4955229;29;20023;-77
2021/05/16 02:37:18;;;;;;;72.40;32.83;;;6.30;99.90;;;;;;4970060;28;20035;-78
2021/05/16 02:39:44;;;;;;;61.78;31.70;;;6.30;99.90;;;;;;4958679;28;20035;-77
2021/05/16 02:42:09;;;;;;;56.40;28.88;;;6.30;99.90;;;;;;4957992;28;20027;-78
2021/05/16 02:44:35;;;;;;;60.42;27.52;;;6.20;99.90;;;;;;4955556;28;20036;-78
2021/05/16 02:47:02;;;;;;;57.45;28.98;;;6.20;99.90;;;;;;4955290;29;20780;-78
2021/05/16 02:49:29;;;;;;;69.03;33.03;;;6.10;99.90;;;;;;4955230;29;20038;-78
2021/05/16 02:51:58;;;;;;;67.68;33.28;;;6.20;99.90;;;;;;4956229;28;20016;-78
2021/05/16 02:54:24;;;;;;;71.00;32.70;;;6.20;99.90;;;;;;4955610;28;20034;-77
2021/05/16 02:56:49;;;;;;;60.72;31.33;;;6.20;99.90;;;;;;4952144;29;20388;-78
2021/05/16 02:59:23;;;;;;;67.97;32.00;;;6.20;99.90;;;;;;4937401;29;20110;-77
2021/05/16 03:01:48;;;;;;;50.35;26.88;;;6.20;99.90;;;;;;4955196;29;20034;-78
2021/05/16 03:04:14;;;;;;;59.08;28.40;;;6.30;99.90;;;;;;4955609;29;20110;-77
2021/05/16 03:06:42;;;;;;;53.80;27.10;;;6.30;99.90;;;;;;4955847;29;20031;-78
2021/05/16 03:09:07;;;;;;;58.95;29.00;;;6.40;99.90;;;;;;4954925;29;20023;-77
2021/05/16 03:11:33;;;;;;;76.13;36.10;;;6.50;99.90;;;;;;4956037;28;20400;-78
2021/05/16 03:13:58;;;;;;;74.53;34.65;;;6.60;99.90;;;;;;4955404;28;20039;-78
2021/05/16 03:16:27;;;;;;;80.72;36.50;;;6.70;99.90;;;;;;4955788;28;20035;-78
2021/05/16 03:18:52;;;;;;;82.10;37.88;;;6.80;99.90;;;;;;4954609;29;20082;-77
2021/05/16 03:21:18;;;;;;;88.05;38.75;;;6.80;99.90;;;;;;4955492;29;20032;-78
2021/05/16 03:23:45;;;;;;;86.05;41.10;;;6.90;99.90;;;;;;4955187;29;20034;-77
2021/05/16 03:26:11;;;;;;;86.38;38.65;;;7.10;99.90;;;;;;4970710;28;20062;-78
2021/05/16 03:28:39;;;;;;;87.15;38.45;;;7.20;99.90;;;;;;4970533;28;20071;-78
2021/05/16 03:31:04;;;;;;;89.57;40.47;;;7.30;99.90;;;;;;4955388;28;20062;-78
2021/05/16 03:33:30;;;;;;;82.45;38.20;;;7.30;99.90;;;;;;4955624;29;20063;-77
2021/05/16 03:35:55;;;;;;;93.95;41.20;;;7.40;99.90;;;;;;4954624;29;20124;-78
2021/05/16 03:38:21;;;;;;;105.72;41.63;;;7.50;99.90;;;;;;4970376;28;20035;-78
2021/05/16 03:40:47;;;;;;;102.78;42.33;;;7.60;99.90;;;;;;4955481;28;20500;-78
2021/05/16 03:43:13;;;;;;;91.93;40.65;;;7.70;99.90;;;;;;4955138;28;20369;-78
2021/05/16 03:45:39;;;;;;;112.07;46.80;;;7.70;99.90;;;;;;4969375;28;20087;-78
2021/05/16 03:48:05;;;;;;;119.40;47.97;;;7.80;99.90;;;;;;4954085;29;20019;-77
2021/05/16 03:50:31;;;;;;;124.40;47.10;;;7.90;99.90;;;;;;4954065;29;20039;-78
2021/05/16 03:52:57;;;;;;;146.10;50.70;;;7.90;99.90;;;;;;4953938;29;20487;-78
2021/05/16 03:55:23;;;;;;;166.40;56.05;;;8.00;99.90;;;;;;4954319;28;20074;-78
2021/05/16 03:57:50;;;;;;;191.77;58.95;;;8.10;99.90;;;;;;4954193;29;20031;-78
2021/05/16 04:00:16;;;;;;;189.82;60.90;;;8.20;99.90;;;;;;4953691;29;20035;-78
2021/05/16 04:02:43;;;;;;;187.02;59.25;;;8.20;99.90;;;;;;4955017;28;20113;-78
2021/05/16 04:05:09;;;;;;;179.50;59.65;;;8.30;99.90;;;;;;4954080;28;20107;-78
2021/05/16 04:07:35;;;;;;;204.27;61.65;;;8.30;99.90;;;;;;4969809;28;20485;-78
2021/05/16 04:10:01;;;;;;;189.80;57.47;;;8.40;99.90;;;;;;4954960;28;20034;-78
2021/05/16 04:12:27;;;;;;;186.02;60.72;;;8.40;99.90;;;;;;4953575;28;20031;-78
2021/05/16 04:14:52;;;;;;;164.20;54.45;;;8.50;99.90;;;;;;4954044;28;20114;-78
2021/05/16 04:17:19;;;;;;;181.05;57.63;;;8.50;99.90;;;;;;4953624;29;20163;-78
2021/05/16 04:19:45;;;;;;;173.63;58.60;;;8.50;99.90;;;;;;4969649;28;20031;-78
2021/05/16 04:22:11;;;;;;;156.52;53.35;;;8.60;99.90;;;;;;4954592;28;20027;-78
2021/05/16 04:24:36;;;;;;;160.52;53.25;;;8.60;99.90;;;;;;4953523;29;20033;-78
2021/05/16 04:27:02;;;;;;;163.02;57.10;;;8.60;99.90;;;;;;4954403;29;20031;-78
2021/05/16 04:29:28;;;;;;;157.95;54.70;;;8.70;99.90;;;;;;4952652;29;20082;-78
2021/05/16 04:31:53;;;;;;;159.25;53.70;;;8.70;99.90;;;;;;4954695;29;20027;-78
2021/05/16 04:34:19;;;;;;;151.75;53.40;;;8.70;99.90;;;;;;4953894;29;20031;-78
2021/05/16 04:36:45;;;;;;;137.73;49.95;;;8.70;99.90;;;;;;4954132;29;20038;-78
2021/05/16 04:39:10;;;;;;;135.40;48.45;;;8.70;99.90;;;;;;4954501;28;20019;-78
2021/05/16 04:41:36;;;;;;;148.10;50.40;;;8.80;99.90;;;;;;4969139;28;20519;-78
2021/05/16 04:44:03;;;;;;;146.43;50.03;;;8.80;99.90;;;;;;4952442;29;20110;-78
2021/05/16 04:46:29;;;;;;;155.27;53.33;;;8.80;99.90;;;;;;4954152;28;20031;-78
2021/05/16 04:48:55;;;;;;;152.68;52.83;;;8.80;99.90;;;;;;4954271;29;20024;-78
2021/05/16 04:51:21;;;;;;;134.73;45.78;;;8.80;99.90;;;;;;4952901;29;20400;-78
2021/05/16 04:53:46;;;;;;;150.18;50.13;;;8.80;99.90;;;;;;4953444;28;20041;-78
2021/05/16 04:56:12;;;;;;;130.95;44.42;;;8.90;99.90;;;;;;4953413;29;20027;-78
2021/05/16 04:58:38;;;;;;;139.85;46.83;;;8.90;99.90;;;;;;4954121;29;20035;-78
2021/05/16 05:01:06;;;;;;;140.85;50.38;;;8.90;99.90;;;;;;4953765;28;20031;-79
2021/05/16 05:03:33;;;;;;;147.88;50.58;;;9.00;99.90;;;;;;4954042;28;20031;-78
2021/05/16 05:05:59;;;;;;;135.73;46.38;;;9.00;99.90;;;;;;4948866;29;20028;-78
2021/05/16 05:08:26;;;;;;;121.55;44.63;;;9.10;99.90;;;;;;4934827;29;20032;-78
2021/05/16 05:10:52;;;;;;;141.82;49.45;;;9.20;99.90;;;;;;4934736;29;20030;-78
2021/05/16 05:13:18;;;;;;;140.35;52.65;;;9.30;99.90;;;;;;4933593;29;20388;-78
2021/05/16 05:15:43;;;;;;;119.38;44.30;;;9.30;99.90;;;;;;4946042;29;20027;-78
2021/05/16 05:18:09;;;;;;;123.85;44.92;;;9.40;99.90;;;;;;4953897;29;20063;-78
2021/05/16 05:20:35;;;;;;;134.25;47.85;;;9.50;99.90;;;;;;4953878;29;20031;-78
2021/05/16 05:23:00;;;;;;;128.07;45.55;;;9.50;99.90;;;;;;4953656;29;20027;-78
2021/05/16 05:25:27;;;;;;;124.22;44.60;;;9.60;99.90;;;;;;4952957;29;20543;-78
2021/05/16 05:27:56;;;;;;;114.07;42.42;;;9.70;99.90;;;;;;4953822;28;20038;-78
2021/05/16 05:30:23;;;;;;;129.93;47.47;;;9.70;99.90;;;;;;4952306;29;20037;-78
2021/05/16 05:32:49;;;;;;;122.00;44.75;;;9.80;99.90;;;;;;4952422;29;20027;-78
2021/05/16 05:35:15;;;;;;;139.20;45.47;;;9.90;99.90;;;;;;4952809;29;20031;-78
2021/05/16 05:37:41;;;;;;;118.80;43.83;;;9.90;99.90;;;;;;4952309;28;20523;-78
2021/05/16 05:40:07;;;;;;;102.20;40.75;;;10.00;99.90;;;;;;4953780;28;20031;-78
2021/05/16 05:42:32;;;;;;;122.32;45.00;;;10.20;99.90;;;;;;4953585;28;20240;-78
2021/05/16 05:44:58;;;;;;;111.68;44.10;;;10.10;99.90;;;;;;4951507;29;20070;-78
2021/05/16 05:47:24;;;;;;;114.63;44.53;;;10.20;99.90;;;;;;4952397;29;20036;-77
2021/05/16 05:49:49;;;;;;;103.18;42.13;;;10.20;99.90;;;;;;4953563;29;20028;-78
2021/05/16 05:52:15;;;;;;;123.80;46.45;;;10.30;99.90;;;;;;4953437;29;20028;-78
2021/05/16 05:54:40;;;;;;;113.38;45.22;;;10.30;99.90;;;;;;4952680;29;20040;-78
2021/05/16 05:57:06;;;;;;;107.20;42.58;;;10.20;99.90;;;;;;4953546;28;20102;-78
2021/05/16 05:59:32;;;;;;;105.53;41.92;;;10.20;99.90;;;;;;4952016;29;20444;-78
2021/05/16 06:01:59;;;;;;;112.40;42.72;;;10.20;99.90;;;;;;4951654;28;20035;-78
2021/05/16 06:04:25;;;;;;;110.82;43.65;;;10.20;99.90;;;;;;4952521;28;20090;-78
2021/05/16 06:06:51;;;;;;;110.15;42.40;;;10.30;99.90;;;;;;4952482;28;20488;-78
2021/05/16 06:09:16;;;;;;;109.50;45.45;;;10.30;99.90;;;;;;4957113;29;20476;-78
2021/05/16 06:11:42;;;;;;;114.25;45.88;;;10.40;99.90;;;;;;4956924;29;20387;-78
2021/05/16 06:14:07;;;;;;;105.78;42.78;;;10.40;99.90;;;;;;4955959;29;20079;-79
2021/05/16 06:16:33;;;;;;;99.75;43.03;;;10.60;99.90;;;;;;4956957;28;20069;-78
2021/05/16 06:19:00;;;;;;;101.65;43.30;;;10.50;99.90;;;;;;4956799;28;20090;-78
2021/05/16 06:21:26;;;;;;;99.97;45.03;;;10.50;99.90;;;;;;4956664;28;20058;-78
2021/05/16 06:24:09;;;;;;;87.05;38.00;;;10.50;99.90;;;;;;4956084;28;20488;-78
2021/05/16 06:26:37;;;;;;;102.35;43.50;;;10.60;99.90;;;;;;4971486;28;20031;-78
2021/05/16 06:29:04;;;;;;;102.43;41.65;;;10.60;99.90;;;;;;4955746;29;20138;-78
2021/05/16 06:31:30;;;;;;;85.28;36.83;;;10.60;99.90;;;;;;4956578;29;20027;-78
2021/05/16 06:33:56;;;;;;;80.50;37.83;;;10.60;99.90;;;;;;4955869;28;20038;-78
2021/05/16 06:36:21;;;;;;;75.32;34.78;;;10.70;99.90;;;;;;4956150;28;20043;-78
2021/05/16 06:38:47;;;;;;;79.47;36.15;;;10.70;99.90;;;;;;4956356;28;20094;-78
2021/05/16 06:41:13;;;;;;;87.20;39.13;;;10.70;99.90;;;;;;4956371;29;20035;-78
2021/05/16 06:43:38;;;;;;;86.85;40.42;;;10.70;99.90;;;;;;4956092;28;20043;-78
2021/05/16 06:46:07;;;;;;;85.38;37.75;;;10.70;99.90;;;;;;4956024;29;20027;-78
2021/05/16 06:48:34;;;;;;;92.10;41.45;;;10.80;99.90;;;;;;4954933;29;20028;-78
2021/05/16 06:51:00;;;;;;;82.10;39.13;;;10.80;99.90;;;;;;4956389;28;20077;-78
2021/05/16 06:53:26;;;;;;;87.13;38.03;;;10.90;99.90;;;;;;4955038;29;20027;-78
2021/05/16 06:55:51;;;;;;;82.22;37.70;;;11.00;99.90;;;;;;4970175;28;20038;-78
2021/05/16 06:58:17;;;;;;;80.22;39.97;;;11.10;99.90;;;;;;4954935;29;20046;-78
2021/05/16 07:00:42;;;;;;;86.43;39.70;;;11.10;99.90;;;;;;4955822;28;20035;-78
2021/05/16 07:03:08;;;;;;;78.90;38.85;;;11.00;99.90;;;;;;4955962;28;20031;-78
2021/05/16 07:05:33;;;;;;;78.10;38.67;;;11.10;99.90;;;;;;4955143;28;20024;-78
2021/05/16 07:08:00;;;;;;;79.20;38.78;;;11.20;99.90;;;;;;4970891;28;20051;-78
2021/05/16 07:10:25;;;;;;;68.93;36.97;;;11.20;99.90;;;;;;4957266;28;20023;-77
2021/05/16 07:12:51;;;;;;;72.20;38.90;;;11.30;99.90;;;;;;4957305;29;20037;-78
2021/05/16 07:15:17;;;;;;;77.22;39.20;;;11.50;99.90;;;;;;4955479;29;20078;-78
2021/05/16 07:17:43;;;;;;;86.43;41.30;;;11.50;99.90;;;;;;4955203;28;20058;-78
2021/05/16 07:20:10;;;;;;;84.15;39.95;;;11.60;99.90;;;;;;4954527;29;20027;-78
2021/05/16 07:22:35;;;;;;;80.63;39.60;;;11.80;99.90;;;;;;4955725;29;20024;-78
2021/05/16 07:25:01;;;;;;;66.78;36.63;;;12.00;99.90;;;;;;4950293;29;20477;-78
2021/05/16 07:27:26;;;;;;;74.25;40.58;;;11.90;99.90;;;;;;4944856;29;20086;-78
2021/05/16 07:29:53;;;;;;;68.85;34.95;;;12.00;99.90;;;;;;4955378;29;20039;-78
2021/05/16 07:32:18;;;;;;;70.10;37.03;;;12.10;99.90;;;;;;4955408;28;20026;-78
2021/05/16 07:34:44;;;;;;;73.90;37.35;;;12.10;99.90;;;;;;4954925;28;20401;-78
2021/05/16 07:37:09;;;;;;;63.92;36.50;;;12.00;99.90;;;;;;4955138;29;20093;-79
2021/05/16 07:39:35;;;;;;;64.70;36.00;;;11.90;99.90;;;;;;4970384;28;20024;-78
2021/05/16 07:42:01;;;;;;;65.63;35.45;;;11.90;99.90;;;;;;4955248;29;20111;-78
2021/05/16 07:44:27;;;;;;;60.88;35.38;;;11.80;99.90;;;;;;4954540;29;20035;-78
2021/05/16 07:46:52;;;;;;;55.83;32.55;;;11.80;99.90;;;;;;4955199;28;20058;-78
2021/05/16 07:49:18;;;;;;;55.83;32.72;;;11.80;99.90;;;;;;4955385;28;20027;-78
2021/05/16 07:51:43;;;;;;;65.78;35.53;;;11.90;99.90;;;;;;4955263;28;20031;-78
2021/05/16 07:54:09;;;;;;;60.92;35.55;;;11.90;99.90;;;;;;4954526;28;20027;-78
2021/05/16 07:56:34;;;;;;;62.38;36.17;;;11.80;99.90;;;;;;4954928;28;20040;-78
2021/05/16 07:59:00;;;;;;;61.75;34.10;;;11.90;99.90;;;;;;4955049;29;20522;-78
2021/05/16 08:01:26;;;;;;;58.97;34.25;;;11.90;99.90;;;;;;4953062;28;20162;-78
2021/05/16 08:03:52;;;;;;;54.20;31.88;;;12.00;99.90;;;;;;4954274;28;20031;-78
2021/05/16 08:06:17;;;;;;;58.30;34.05;;;12.20;99.90;;;;;;4949965;29;20031;-78
2021/05/16 08:08:43;;;;;;;53.38;34.30;;;12.40;99.90;;;;;;4935850;29;20024;-78
2021/05/16 08:11:09;;;;;;;46.80;28.58;;;12.60;99.90;;;;;;4935568;29;20038;-78
2021/05/16 08:13:35;;;;;;;47.25;28.73;;;12.90;99.90;;;;;;4935655;29;20023;-78
2021/05/16 08:16:00;;;;;;;45.05;29.38;;;13.10;99.90;;;;;;4950528;29;20380;-78
2021/05/16 08:18:26;;;;;;;45.42;27.88;;;13.30;99.90;;;;;;4953423;29;20035;-78
2021/05/16 08:20:52;;;;;;;45.80;28.00;;;13.50;99.90;;;;;;4947778;28;20510;-78
2021/05/16 08:23:17;;;;;;;53.55;30.90;;;13.80;99.90;;;;;;4950481;29;20086;-78
2021/05/16 08:25:43;;;;;;;41.53;27.20;;;14.00;99.90;;;;;;4951199;28;20047;-78
2021/05/16 08:28:09;;;;;;;42.15;27.40;;;14.20;99.90;;;;;;4951538;29;20091;-79
2021/05/16 08:30:36;;;;;;;40.10;23.73;;;14.40;99.90;;;;;;4953160;28;20074;-79
2021/05/16 08:33:02;;;;;;;34.63;23.70;;;14.50;99.90;;;;;;4954362;28;20393;-78
2021/05/16 08:35:28;;;;;;;39.83;25.40;;;14.70;99.90;;;;;;4954130;28;20051;-78
2021/05/16 08:37:53;;;;;;;25.23;18.38;;;14.70;99.90;;;;;;4954286;29;20039;-79
2021/05/16 08:40:20;;;;;;;28.15;19.63;;;14.80;99.90;;;;;;4954363;29;20037;-79
2021/05/16 08:42:46;;;;;;;26.38;19.05;;;15.00;99.90;;;;;;4954254;28;20082;-79
2021/05/16 08:45:13;;;;;;;26.95;18.42;;;15.20;99.90;;;;;;4949429;29;20055;-79
2021/05/16 08:47:41;;;;;;;24.73;16.35;;;15.30;99.90;;;;;;4933818;29;20028;-80
2021/05/16 08:50:10;;;;;;;24.67;16.88;;;15.40;99.90;;;;;;4943486;29;20062;-79
2021/05/16 08:52:36;;;;;;;24.10;17.95;;;15.50;99.90;;;;;;4953283;29;20467;-80
2021/05/16 08:55:03;;;;;;;26.23;17.30;;;15.70;99.90;;;;;;4953566;29;20031;-79
2021/05/16 08:57:29;;;;;;;26.23;18.67;;;15.70;99.90;;;;;;4954080;29;20039;-79
2021/05/16 09:00:16;;;;;;;24.38;17.63;;;15.90;99.90;;;;;;4953667;29;20046;-80
2021/05/16 09:03:04;;;;;;;24.83;16.88;;;16.00;99.90;;;;;;4953917;28;20039;-79
2021/05/16 09:05:40;;;;;;;25.52;17.05;;;16.10;99.90;;;;;;4953654;28;20365;-79
2021/05/16 09:08:12;;;;;;;25.95;15.70;;;16.20;99.90;;;;;;4952730;29;20028;-79
2021/05/16 09:10:41;;;;;;;20.67;14.68;;;16.30;99.90;;;;;;4953948;28;20024;-79
2021/05/16 09:13:22;;;;;;;21.50;15.00;;;16.50;99.90;;;;;;4953900;28;20071;-79
2021/05/16 09:16:00;;;;;;;21.38;15.30;;;16.90;99.90;;;;;;4949091;29;20467;-79
2021/05/16 09:18:36;;;;;;;25.67;15.00;;;17.60;99.90;;;;;;4949258;29;20030;-79
2021/05/16 09:21:22;;;;;;;21.05;15.10;;;17.90;99.90;;;;;;4934472;29;20024;-79
2021/05/16 09:24:00;;;;;;;22.90;15.65;;;18.00;99.90;;;;;;4934499;29;20389;-79
2021/05/16 09:26:49;;;;;;;20.13;15.23;;;18.20;99.90;;;;;;4949990;29;20019;-79
2021/05/16 09:29:43;;;;;;;22.42;16.30;;;18.10;99.90;;;;;;4950588;29;20042;-79
2021/05/16 09:32:09;;;;;;;20.38;15.82;;;18.00;99.90;;;;;;4953769;28;20488;-79
2021/05/16 09:34:36;;;;;;;20.67;15.50;;;17.70;99.90;;;;;;4953353;29;20042;-79
2021/05/16 09:37:02;;;;;;;27.02;16.48;;;17.60;99.90;;;;;;4953352;28;20039;-78
2021/05/16 09:39:29;;;;;;;21.63;16.55;;;17.60;99.90;;;;;;4953619;28;20058;-77
2021/05/16 09:42:08;;;;;;;26.23;17.83;;;17.90;99.90;;;;;;4956326;28;20020;-77
2021/05/16 09:44:54;;;;;;;23.08;16.13;;;18.20;99.90;;;;;;4957162;28;20027;-80
2021/05/16 09:47:28;;;;;;;23.45;16.95;;;18.20;99.90;;;;;;4957752;28;20059;-79
2021/05/16 09:49:59;;;;;;;22.58;16.52;;;18.20;99.90;;;;;;4957522;28;20027;-78
2021/05/16 09:52:27;;;;;;;21.35;15.95;;;18.10;99.90;;;;;;4957311;28;20415;-78
2021/05/16 09:55:05;;;;;;;23.48;15.68;;;18.40;99.90;;;;;;4957073;28;20074;-78
2021/05/16 09:57:33;;;;;;;20.35;15.48;;;18.60;99.90;;;;;;4957420;28;20042;-78
2021/05/16 09:59:59;;;;;;;21.52;16.13;;;18.80;99.90;;;;;;4957176;28;20404;-79
2021/05/16 10:02:27;;;;;;;22.63;16.60;;;18.70;99.90;;;;;;4956923;29;20028;-79
2021/05/16 10:05:01;;;;;;;21.77;15.00;;;18.60;99.90;;;;;;4956730;28;20042;-79
2021/05/16 10:07:27;;;;;;;21.65;15.82;;;18.60;99.90;;;;;;4957327;28;20038;-79
2021/05/16 10:09:54;;;;;;;19.23;15.32;;;18.50;99.90;;;;;;4957112;28;20028;-79
2021/05/16 10:12:22;;;;;;;16.23;12.20;;;18.40;99.90;;;;;;4955794;28;20043;-79
2021/05/16 10:15:11;;;;;;;15.15;12.05;;;18.10;99.90;;;;;;4956455;28;20504;-79
2021/05/16 10:17:39;;;;;;;15.00;11.30;;;17.70;99.90;;;;;;4955864;29;20066;-77
2021/05/16 10:20:13;;;;;;;15.73;11.85;;;17.30;99.90;;;;;;4971749;28;20543;-79
2021/05/16 10:22:39;;;;;;;17.50;12.32;;;17.20;99.90;;;;;;4956883;28;20066;-79
2021/05/16 10:25:05;;;;;;;17.70;12.98;;;17.00;99.90;;;;;;4956436;28;20047;-79
2021/05/16 10:27:42;;;;;;;14.10;10.40;;;17.00;99.90;;;;;;4956738;28;20043;-79
2021/05/16 10:30:09;;;;;;;17.17;13.27;;;16.80;99.90;;;;;;4956512;28;20070;-79
2021/05/16 10:32:50;;;;;;;16.40;11.85;;;16.80;99.90;;;;;;4956736;29;20106;-80
2021/05/16 10:35:16;;;;;;;19.13;12.48;;;16.80;99.90;;;;;;4951913;29;20493;-80
2021/05/16 10:37:46;;;;;;;14.38;12.35;;;16.80;99.90;;;;;;4937203;29;20039;-79
2021/05/16 10:40:12;;;;;;;16.15;13.52;;;16.50;99.90;;;;;;4937526;29;20027;-80
2021/05/16 10:42:43;;;;;;;18.83;14.32;;;16.40;99.90;;;;;;4937282;29;20083;-79
2021/05/16 10:45:12;;;;;;;14.90;12.25;;;16.70;99.90;;;;;;4945419;29;20031;-79
2021/05/16 10:47:45;;;;;;;16.83;11.98;;;17.00;99.90;;;;;;4956351;29;20019;-79
2021/05/16 10:50:25;;;;;;;16.52;12.68;;;17.10;99.90;;;;;;4956227;29;20062;-78
2021/05/16 10:52:58;;;;;;;19.23;13.10;;;17.00;99.90;;;;;;4955391;28;20044;-79
2021/05/16 10:55:29;;;;;;;20.85;15.15;;;17.10;99.90;;;;;;4955859;29;20035;-78
2021/05/16 10:57:55;;;;;;;22.88;13.05;;;16.90;99.90;;;;;;4956216;28;20062;-78
2021/05/16 11:00:30;;;;;;;16.65;13.70;;;16.60;99.90;;;;;;4954625;29;20094;-79
2021/05/16 11:02:59;;;;;;;18.45;14.27;;;16.40;99.90;;;;;;4956049;29;20441;-77
2021/05/16 11:08:09;;;;;;;20.80;16.15;;;15.80;99.90;;;;;;4956354;28;20038;-78
2021/05/16 11:10:39;;;;;;;23.58;16.08;;;15.50;99.90;;;;;;4954838;29;20531;-78
2021/05/16 11:13:12;;;;;;;19.67;15.43;;;15.40;99.90;;;;;;4955889;28;20396;-80
2021/05/16 11:15:45;;;;;;;26.05;18.35;;;15.10;99.90;;;;;;4955589;28;20042;-79
2021/05/16 11:18:11;;;;;;;20.23;16.10;;;14.90;99.90;;;;;;4954700;29;20531;-78
2021/05/16 11:20:37;;;;;;;26.85;19.88;;;14.70;99.90;;;;;;4955969;29;20401;-78
2021/05/16 11:23:03;;;;;;;29.50;20.65;;;14.40;99.90;;;;;;4954458;29;20031;-78
2021/05/16 11:25:28;;;;;;;33.35;22.20;;;14.10;99.90;;;;;;4950798;29;20079;-78
2021/05/16 11:27:54;;;;;;;32.45;23.15;;;13.80;99.90;;;;;;4936497;29;20074;-78
2021/05/16 11:30:26;;;;;;;28.05;22.13;;;13.50;99.90;;;;;;4944809;29;20117;-79
2021/05/16 11:32:52;;;;;;;31.95;22.20;;;13.20;99.90;;;;;;4955702;28;20118;-78
2021/05/16 11:35:21;;;;;;;34.47;28.02;;;13.00;99.90;;;;;;4950810;29;20156;-79
2021/05/16 11:37:51;;;;;;;27.75;22.52;;;12.90;99.90;;;;;;4935121;29;20039;-78
2021/05/16 11:40:20;;;;;;;23.98;18.85;;;12.80;99.90;;;;;;4934966;29;20649;-78
2021/05/16 11:42:46;;;;;;;28.17;20.52;;;12.70;99.90;;;;;;4936301;29;20028;-77
2021/05/16 11:45:14;;;;;;;26.40;21.35;;;12.60;99.90;;;;;;4935545;29;20027;-79
2021/05/16 11:47:41;;;;;;;25.40;20.55;;;12.60;99.90;;;;;;4957872;28;20043;-78
2021/05/16 11:50:09;;;;;;;41.20;25.08;;;12.70;99.90;;;;;;4953317;28;20114;-78
2021/05/16 11:52:35;;;;;;;43.03;26.77;;;13.00;99.90;;;;;;4949400;28;20051;-78
2021/05/16 11:55:07;;;;;;;29.67;22.52;;;13.10;99.90;;;;;;4949813;29;20042;-78
2021/05/16 11:57:35;;;;;;;24.17;19.88;;;13.20;99.90;;;;;;4954013;29;20432;-79
2021/05/16 12:00:09;;;;;;;24.55;19.42;;;13.50;99.90;;;;;;4954751;28;20086;-78
2021/05/16 12:02:36;;;;;;;17.70;14.35;;;13.60;99.90;;;;;;4953817;28;20111;-78
2021/05/16 12:05:03;;;;;;;18.30;14.38;;;13.70;99.90;;;;;;4954577;28;20028;-78
2021/05/16 12:07:28;;;;;;;21.20;15.73;;;14.00;99.90;;;;;;4953492;29;20039;-78
2021/05/16 12:09:54;;;;;;;13.20;11.82;;;14.30;99.90;;;;;;4953781;29;20023;-79
2021/05/16 12:12:23;;;;;;;13.82;10.57;;;14.50;99.90;;;;;;4954789;28;20032;-78
2021/05/16 12:14:49;;;;;;;13.73;11.10;;;14.60;99.90;;;;;;4953260;29;20031;-79
2021/05/16 12:17:15;;;;;;;11.52;10.40;;;14.70;99.90;;;;;;4954897;29;20392;-79
2021/05/16 12:19:41;;;;;;;12.13;9.52;;;14.70;99.90;;;;;;4954859;29;20027;-79
2021/05/16 12:22:13;;;;;;;10.95;9.85;;;14.50;99.90;;;;;;4954975;28;20086;-79
2021/05/16 12:24:46;;;;;;;9.73;8.77;;;14.30;99.90;;;;;;4954072;28;20081;-79
2021/05/16 12:27:13;;;;;;;9.05;7.07;;;14.20;99.90;;;;;;4950332;29;20047;-78
2021/05/16 12:29:40;;;;;;;10.35;7.25;;;14.10;99.90;;;;;;4938321;29;20058;-80
2021/05/16 12:32:10;;;;;;;9.63;7.32;;;14.00;99.90;;;;;;4954516;28;20040;-80
2021/05/16 12:34:37;;;;;;;18.48;9.32;;;14.00;99.90;;;;;;4954697;29;20111;-79
2021/05/16 12:37:17;;;;;;;9.00;7.85;;;14.00;99.90;;;;;;4954193;29;20029;-79